Pretty Hana — DSQJ5 — position and weather

sailwx.info

Track history (hours):
 
Tides and Currents Weather Stations Pressure Air Temp Water Temp Dewpoint Dewpoint Depression Visibility Wind Speed Wind Dir Waves Ship Positions

Pretty Hana

Last reported at 2015-Jul-04 11:31 UTC. Time now 2015-Jul-06 22:10 UTC.
Position N 34°57' E 139°29'.

; draft 3.9 m.

Type: Tanker. MMSI: 441600000.

Date/timePositionNaut miles runAvg speedWind from/ knotsBaromVisibWave heightAir tempDewpointWater temp
2015-Jul-04 11:31N 34°57' E 139°29'1010.1
2015-Jul-04 10:33N 35°03' E 139°38'1010.1
2015-Jul-04 09:34N 35°11' E 139°45'9 8.8
2015-Jul-04 08:33N 35°20' E 139°43'9 9.3
2015-Jul-04 07:33N 35°28' E 139°47'3 2.8
2015-Jul-04 06:31N 35°31' E 139°46'0 0.0
2015-Jul-04 05:31N 35°31' E 139°46'0 0.0
2015-Jul-04 04:31N 35°31' E 139°46'0 0.0
2015-Jul-04 03:28N 35°31' E 139°46'0 0.0
2015-Jul-04 02:31N 35°31' E 139°46'0 0.0
2015-Jul-04 01:31N 35°31' E 139°46'0 0.0
2015-Jul-04 00:22N 35°31' E 139°46'0 0.0
2015-Jul-03 23:31N 35°31' E 139°46'0 0.1
2015-Jul-03 22:33N 35°31' E 139°46'2 2.2
2015-Jul-03 21:31N 35°29' E 139°48'0 0.0
2015-Jul-03 20:31N 35°29' E 139°48'0 0.0
2015-Jul-03 19:31N 35°29' E 139°48'0 0.0
2015-Jul-03 18:31N 35°29' E 139°48'0 0.1
2015-Jul-03 17:31N 35°29' E 139°48'0 0.0
2015-Jul-03 16:28N 35°29' E 139°48'0 0.0
2015-Jul-03 15:31N 35°29' E 139°48'0 0.0
2015-Jul-03 14:31N 35°29' E 139°48'0 0.1
2015-Jul-03 13:31N 35°29' E 139°48'0 0.0
2015-Jul-03 12:31N 35°29' E 139°48'0 0.1
2015-Jul-03 11:28N 35°29' E 139°48'0 0.1
2015-Jul-03 10:31N 35°29' E 139°48'0 0.0
2015-Jul-03 09:31N 35°29' E 139°48'0 0.0
2015-Jul-03 08:31N 35°29' E 139°48'0 0.0
2015-Jul-03 07:32N 35°29' E 139°48'5 5.3
2015-Jul-03 06:33N 35°31' E 139°54'1010.2
2015-Jul-03 05:33N 35°33' E 140°06'1 0.6
2015-Jul-03 04:28N 35°33' E 140°07'0 0.0
2015-Jul-03 03:19N 35°33' E 140°07'0 0.0
2015-Jul-03 02:31N 35°33' E 140°07'0 0.0
2015-Jul-03 01:31N 35°33' E 140°07'0 0.0
2015-Jul-03 00:31N 35°33' E 140°07'0 0.1
2015-Jul-02 23:22N 35°33' E 140°07'2 1.7
2015-Jul-02 22:25N 35°33' E 140°05'0 0.0
2015-Jul-02 21:31N 35°33' E 140°05'0 0.0
2015-Jul-02 20:25N 35°33' E 140°05'0 0.0
2015-Jul-02 19:19N 35°33' E 140°05'0 0.0
2015-Jul-02 18:07N 35°33' E 140°05'0 0.0
2015-Jul-02 17:31N 35°33' E 140°05'0 0.0
2015-Jul-02 16:13N 35°33' E 140°05'0 0.1
2015-Jul-02 15:31N 35°33' E 140°05'0 0.0
2015-Jul-02 13:31N 35°33' E 140°05'0 0.0
2015-Jul-02 12:16N 35°33' E 140°05'0 0.0
2015-Jul-02 11:31N 35°33' E 140°05'0 0.0
2015-Jul-02 10:16N 35°33' E 140°05'0 0.1
2015-Jul-02 09:17N 35°33' E 140°05'3 3.8
2015-Jul-02 08:32N 35°33' E 140°01'1111.3
2015-Jul-02 07:33N 35°27' E 139°50'1010.4
2015-Jul-02 06:33N 35°18' E 139°45'1110.7
2015-Jul-02 05:33N 35°07' E 139°45'  
2015-Jun-24 12:33N 34°37' E 134°58'9 8.9
2015-Jun-24 11:33N 34°36' E 135°09'  
Track history (hours):
 
Tides and Currents Weather Stations Pressure Air Temp Water Temp Dewpoint Dewpoint Depression Visibility Wind Speed Wind Dir Waves Ship Positions

Pretty Hana

Last reported at 2015-Jul-04 11:31 UTC. Time now 2015-Jul-06 22:10 UTC.
Position N 34°57' E 139°29'.

; draft 3.9 m.

Type: Tanker. MMSI: 441600000.

Date/timePositionNaut miles runAvg speedWind from/ knotsBaromVisibWave heightAir tempDewpointWater temp
2015-Jul-04 11:31N 34°57' E 139°29'1010.1
2015-Jul-04 10:33N 35°03' E 139°38'1010.1
2015-Jul-04 09:34N 35°11' E 139°45'9 8.8
2015-Jul-04 08:33N 35°20' E 139°43'9 9.3
2015-Jul-04 07:33N 35°28' E 139°47'3 2.8
2015-Jul-04 06:31N 35°31' E 139°46'0 0.0
2015-Jul-04 05:31N 35°31' E 139°46'0 0.0
2015-Jul-04 04:31N 35°31' E 139°46'0 0.0
2015-Jul-04 03:28N 35°31' E 139°46'0 0.0
2015-Jul-04 02:31N 35°31' E 139°46'0 0.0
2015-Jul-04 01:31N 35°31' E 139°46'0 0.0
2015-Jul-04 00:22N 35°31' E 139°46'0 0.0
2015-Jul-03 23:31N 35°31' E 139°46'0 0.1
2015-Jul-03 22:33N 35°31' E 139°46'2 2.2
2015-Jul-03 21:31N 35°29' E 139°48'0 0.0
2015-Jul-03 20:31N 35°29' E 139°48'0 0.0
2015-Jul-03 19:31N 35°29' E 139°48'0 0.0
2015-Jul-03 18:31N 35°29' E 139°48'0 0.1
2015-Jul-03 17:31N 35°29' E 139°48'0 0.0
2015-Jul-03 16:28N 35°29' E 139°48'0 0.0
2015-Jul-03 15:31N 35°29' E 139°48'0 0.0
2015-Jul-03 14:31N 35°29' E 139°48'0 0.1
2015-Jul-03 13:31N 35°29' E 139°48'0 0.0
2015-Jul-03 12:31N 35°29' E 139°48'0 0.1
2015-Jul-03 11:28N 35°29' E 139°48'0 0.1
2015-Jul-03 10:31N 35°29' E 139°48'0 0.0
2015-Jul-03 09:31N 35°29' E 139°48'0 0.0
2015-Jul-03 08:31N 35°29' E 139°48'0 0.0
2015-Jul-03 07:32N 35°29' E 139°48'5 5.3
2015-Jul-03 06:33N 35°31' E 139°54'1010.2
2015-Jul-03 05:33N 35°33' E 140°06'1 0.6
2015-Jul-03 04:28N 35°33' E 140°07'0 0.0
2015-Jul-03 03:19N 35°33' E 140°07'0 0.0
2015-Jul-03 02:31N 35°33' E 140°07'0 0.0
2015-Jul-03 01:31N 35°33' E 140°07'0 0.0
2015-Jul-03 00:31N 35°33' E 140°07'0 0.1
2015-Jul-02 23:22N 35°33' E 140°07'2 1.7
2015-Jul-02 22:25N 35°33' E 140°05'0 0.0
2015-Jul-02 21:31N 35°33' E 140°05'0 0.0
2015-Jul-02 20:25N 35°33' E 140°05'0 0.0
2015-Jul-02 19:19N 35°33' E 140°05'0 0.0
2015-Jul-02 18:07N 35°33' E 140°05'0 0.0
2015-Jul-02 17:31N 35°33' E 140°05'0 0.0
2015-Jul-02 16:13N 35°33' E 140°05'0 0.1
2015-Jul-02 15:31N 35°33' E 140°05'0 0.0
2015-Jul-02 13:31N 35°33' E 140°05'0 0.0
2015-Jul-02 12:16N 35°33' E 140°05'0 0.0
2015-Jul-02 11:31N 35°33' E 140°05'0 0.0
2015-Jul-02 10:16N 35°33' E 140°05'0 0.1
2015-Jul-02 09:17N 35°33' E 140°05'3 3.8
2015-Jul-02 08:32N 35°33' E 140°01'1111.3
2015-Jul-02 07:33N 35°27' E 139°50'1010.4
2015-Jul-02 06:33N 35°18' E 139°45'1110.7
2015-Jul-02 05:33N 35°07' E 139°45'  
2015-Jun-24 12:33N 34°37' E 134°58'9 8.9
2015-Jun-24 11:33N 34°36' E 135°09'  

Dump ship's entire track history